Terminal Aerodrome Forecast
Issued by NWS Blacksburg, VA

Current Version | Previous Version | Graphics & Text | Print | Product List | Glossary On
Versions: 1 2 3 4 5 6 7 8 9 10 11 12 13 14 15 16 17 18 19 20 21 22 23 24 25 26 27 28 29 30 31 32
000
FTUS41 KRNK 091135
TAFBLF
TAF
KBLF 091135Z 0912/1012 29012G22KT 2SM -SHSN SCT005 OVC012
      TEMPO 0912/0916 3/4SM -SHSN VV005
     FM091700 28012G18KT 5SM -SHSN OVC015
     FM092100 27009G16KT P6SM -SHSN OVC022
     FM100600 29010KT 4SM -SHSN OVC015=

USA.gov is the U.S. government's official web portal to all federal, state and local government web resources and services.